METAR Data
IDs: Format: Raw Decoded Include TAF

Data at: 1846 UTC 26 Sep 2021

KRAC 261753Z AUTO 24016G23KT 10SM CLR 27/08 A2988 RMK AO2 PK WND 22027/1707 SLP116 T02670083 10267 20128 58014